sensor_id;sensor_type;location;lat;lon;timestamp;P1;durP1;ratioP1;P2;durP2;ratioP2
70953;SDS011;58618;47.490;8.736;2023-10-31T00:02:41;2.35;;;0.50;;
70953;SDS011;58618;47.490;8.736;2023-10-31T00:05:28;2.25;;;0.60;;
70953;SDS011;58618;47.490;8.736;2023-10-31T00:08:15;1.00;;;0.80;;
70953;SDS011;58618;47.490;8.736;2023-10-31T00:11:03;0.80;;;0.57;;
70953;SDS011;58618;47.490;8.736;2023-10-31T00:13:50;0.70;;;0.60;;
70953;SDS011;58618;47.490;8.736;2023-10-31T00:16:39;1.00;;;0.70;;
70953;SDS011;58618;47.490;8.736;2023-10-31T00:19:26;1.20;;;0.80;;
70953;SDS011;58618;47.490;8.736;2023-10-31T00:22:13;1.35;;;0.73;;
70953;SDS011;58618;47.490;8.736;2023-10-31T00:25:01;0.95;;;0.80;;
70953;SDS011;58618;47.490;8.736;2023-10-31T00:27:48;0.97;;;0.70;;
70953;SDS011;58618;47.490;8.736;2023-10-31T00:30:35;1.17;;;0.82;;
70953;SDS011;58618;47.490;8.736;2023-10-31T00:33:24;4.50;;;0.80;;
70953;SDS011;58618;47.490;8.736;2023-10-31T00:36:11;2.55;;;0.80;;
70953;SDS011;58618;47.490;8.736;2023-10-31T00:38:59;1.98;;;0.80;;
70953;SDS011;58618;47.490;8.736;2023-10-31T00:41:46;3.40;;;0.70;;
70953;SDS011;58618;47.490;8.736;2023-10-31T00:44:33;1.42;;;0.80;;
70953;SDS011;58618;47.490;8.736;2023-10-31T00:47:21;1.10;;;0.80;;
70953;SDS011;58618;47.490;8.736;2023-10-31T00:50:09;2.45;;;0.75;;
70953;SDS011;58618;47.490;8.736;2023-10-31T00:52:57;2.72;;;1.10;;
70953;SDS011;58618;47.490;8.736;2023-10-31T00:55:44;3.17;;;1.00;;
70953;SDS011;58618;47.490;8.736;2023-10-31T00:58:31;1.10;;;0.85;;
70953;SDS011;58618;47.490;8.736;2023-10-31T01:01:19;3.15;;;1.02;;
70953;SDS011;58618;47.490;8.736;2023-10-31T01:04:06;1.38;;;0.90;;
70953;SDS011;58618;47.490;8.736;2023-10-31T01:06:55;3.25;;;1.00;;
70953;SDS011;58618;47.490;8.736;2023-10-31T01:09:42;1.33;;;0.90;;
70953;SDS011;58618;47.490;8.736;2023-10-31T01:12:30;1.77;;;1.00;;
70953;SDS011;58618;47.490;8.736;2023-10-31T01:15:18;2.28;;;0.98;;
70953;SDS011;58618;47.490;8.736;2023-10-31T01:18:06;2.70;;;1.20;;
70953;SDS011;58618;47.490;8.736;2023-10-31T01:20:53;3.58;;;1.38;;
70953;SDS011;58618;47.490;8.736;2023-10-31T01:23:42;1.93;;;1.30;;
70953;SDS011;58618;47.490;8.736;2023-10-31T01:26:29;2.47;;;1.58;;
70953;SDS011;58618;47.490;8.736;2023-10-31T01:29:17;3.42;;;1.42;;
70953;SDS011;58618;47.490;8.736;2023-10-31T01:32:04;6.03;;;1.38;;
70953;SDS011;58618;47.490;8.736;2023-10-31T01:34:52;3.17;;;1.30;;
70953;SDS011;58618;47.490;8.736;2023-10-31T01:37:39;1.67;;;1.20;;
70953;SDS011;58618;47.490;8.736;2023-10-31T01:40:28;1.80;;;1.10;;
70953;SDS011;58618;47.490;8.736;2023-10-31T01:43:28;4.03;;;1.30;;
70953;SDS011;58618;47.490;8.736;2023-10-31T01:46:16;1.88;;;1.30;;
70953;SDS011;58618;47.490;8.736;2023-10-31T01:49:03;3.53;;;1.60;;
70953;SDS011;58618;47.490;8.736;2023-10-31T01:51:51;2.27;;;1.60;;
70953;SDS011;58618;47.490;8.736;2023-10-31T01:54:38;2.15;;;1.75;;
70953;SDS011;58618;47.490;8.736;2023-10-31T01:57:27;2.17;;;1.50;;
70953;SDS011;58618;47.490;8.736;2023-10-31T02:00:15;1.80;;;1.40;;
70953;SDS011;58618;47.490;8.736;2023-10-31T02:03:03;21.13;;;1.70;;
70953;SDS011;58618;47.490;8.736;2023-10-31T02:05:51;2.83;;;1.70;;
70953;SDS011;58618;47.490;8.736;2023-10-31T02:08:39;3.63;;;1.77;;
70953;SDS011;58618;47.490;8.736;2023-10-31T02:11:27;3.00;;;1.70;;
70953;SDS011;58618;47.490;8.736;2023-10-31T02:14:15;2.67;;;1.30;;
70953;SDS011;58618;47.490;8.736;2023-10-31T02:17:03;4.07;;;1.70;;
70953;SDS011;58618;47.490;8.736;2023-10-31T02:19:50;1.70;;;1.50;;
70953;SDS011;58618;47.490;8.736;2023-10-31T02:22:39;3.03;;;1.42;;
70953;SDS011;58618;47.490;8.736;2023-10-31T02:25:26;2.42;;;1.50;;
70953;SDS011;58618;47.490;8.736;2023-10-31T02:28:14;3.67;;;1.52;;
70953;SDS011;58618;47.490;8.736;2023-10-31T02:31:01;1.98;;;1.42;;
70953;SDS011;58618;47.490;8.736;2023-10-31T02:33:48;2.93;;;1.70;;
70953;SDS011;58618;47.490;8.736;2023-10-31T02:36:36;2.05;;;1.40;;
70953;SDS011;58618;47.490;8.736;2023-10-31T02:39:24;4.28;;;1.38;;
70953;SDS011;58618;47.490;8.736;2023-10-31T02:42:12;1.50;;;1.10;;
70953;SDS011;58618;47.490;8.736;2023-10-31T02:44:59;2.05;;;1.13;;
70953;SDS011;58618;47.490;8.736;2023-10-31T02:47:46;2.07;;;1.60;;
70953;SDS011;58618;47.490;8.736;2023-10-31T02:50:34;1.60;;;1.20;;
70953;SDS011;58618;47.490;8.736;2023-10-31T02:53:21;1.35;;;1.23;;
70953;SDS011;58618;47.490;8.736;2023-10-31T02:56:10;1.40;;;1.20;;
70953;SDS011;58618;47.490;8.736;2023-10-31T02:58:57;2.58;;;1.40;;
70953;SDS011;58618;47.490;8.736;2023-10-31T03:01:44;5.73;;;1.20;;
70953;SDS011;58618;47.490;8.736;2023-10-31T03:04:32;1.98;;;1.38;;
70953;SDS011;58618;47.490;8.736;2023-10-31T03:07:19;8.10;;;1.58;;
70953;SDS011;58618;47.490;8.736;2023-10-31T03:10:06;1.98;;;1.40;;
70953;SDS011;58618;47.490;8.736;2023-10-31T03:12:55;1.85;;;1.40;;
70953;SDS011;58618;47.490;8.736;2023-10-31T03:15:43;2.67;;;1.27;;
70953;SDS011;58618;47.490;8.736;2023-10-31T03:18:31;2.35;;;1.40;;
70953;SDS011;58618;47.490;8.736;2023-10-31T03:21:18;4.07;;;1.55;;
70953;SDS011;58618;47.490;8.736;2023-10-31T03:24:05;3.50;;;1.30;;
70953;SDS011;58618;47.490;8.736;2023-10-31T03:26:53;2.53;;;1.60;;
70953;SDS011;58618;47.490;8.736;2023-10-31T03:29:42;2.60;;;1.20;;
70953;SDS011;58618;47.490;8.736;2023-10-31T03:32:29;2.83;;;1.48;;
70953;SDS011;58618;47.490;8.736;2023-10-31T03:35:17;4.43;;;1.30;;
70953;SDS011;58618;47.490;8.736;2023-10-31T03:38:04;2.53;;;1.33;;
70953;SDS011;58618;47.490;8.736;2023-10-31T03:40:51;3.03;;;1.30;;
70953;SDS011;58618;47.490;8.736;2023-10-31T03:43:39;3.20;;;1.50;;
70953;SDS011;58618;47.490;8.736;2023-10-31T03:46:27;3.88;;;0.90;;
70953;SDS011;58618;47.490;8.736;2023-10-31T03:49:15;2.40;;;0.90;;
70953;SDS011;58618;47.490;8.736;2023-10-31T03:52:02;1.35;;;1.00;;
70953;SDS011;58618;47.490;8.736;2023-10-31T03:54:50;2.05;;;1.10;;
70953;SDS011;58618;47.490;8.736;2023-10-31T03:57:37;3.97;;;1.00;;
70953;SDS011;58618;47.490;8.736;2023-10-31T04:00:24;2.67;;;0.80;;
70953;SDS011;58618;47.490;8.736;2023-10-31T04:03:13;2.80;;;1.08;;
70953;SDS011;58618;47.490;8.736;2023-10-31T04:06:00;1.85;;;1.13;;
70953;SDS011;58618;47.490;8.736;2023-10-31T04:08:48;1.75;;;0.93;;
70953;SDS011;58618;47.490;8.736;2023-10-31T04:11:35;1.90;;;1.00;;
70953;SDS011;58618;47.490;8.736;2023-10-31T04:14:22;2.55;;;0.82;;
70953;SDS011;58618;47.490;8.736;2023-10-31T04:17:09;3.08;;;1.30;;
70953;SDS011;58618;47.490;8.736;2023-10-31T04:19:58;1.73;;;1.13;;
70953;SDS011;58618;47.490;8.736;2023-10-31T04:22:45;4.07;;;1.25;;
70953;SDS011;58618;47.490;8.736;2023-10-31T04:25:33;4.57;;;1.20;;
70953;SDS011;58618;47.490;8.736;2023-10-31T04:28:20;2.10;;;1.20;;
70953;SDS011;58618;47.490;8.736;2023-10-31T04:31:07;1.40;;;0.88;;
70953;SDS011;58618;47.490;8.736;2023-10-31T04:33:55;1.30;;;1.10;;
70953;SDS011;58618;47.490;8.736;2023-10-31T04:36:43;2.03;;;1.20;;
70953;SDS011;58618;47.490;8.736;2023-10-31T04:39:30;2.73;;;1.20;;
70953;SDS011;58618;47.490;8.736;2023-10-31T04:42:18;2.10;;;1.27;;
70953;SDS011;58618;47.490;8.736;2023-10-31T04:45:06;1.52;;;1.00;;
70953;SDS011;58618;47.490;8.736;2023-10-31T04:47:54;1.83;;;1.02;;
70953;SDS011;58618;47.490;8.736;2023-10-31T04:50:42;2.17;;;1.00;;
70953;SDS011;58618;47.490;8.736;2023-10-31T04:53:30;1.73;;;1.10;;
70953;SDS011;58618;47.490;8.736;2023-10-31T04:56:19;1.92;;;1.00;;
70953;SDS011;58618;47.490;8.736;2023-10-31T04:59:06;2.28;;;1.20;;
70953;SDS011;58618;47.490;8.736;2023-10-31T05:01:53;4.80;;;1.30;;
70953;SDS011;58618;47.490;8.736;2023-10-31T05:04:41;2.38;;;1.10;;
70953;SDS011;58618;47.490;8.736;2023-10-31T05:07:28;2.40;;;1.20;;
70953;SDS011;58618;47.490;8.736;2023-10-31T05:10:19;3.67;;;1.27;;
70953;SDS011;58618;47.490;8.736;2023-10-31T05:13:06;3.47;;;1.20;;
70953;SDS011;58618;47.490;8.736;2023-10-31T05:15:54;2.05;;;1.17;;
70953;SDS011;58618;47.490;8.736;2023-10-31T05:18:41;1.38;;;1.13;;
70953;SDS011;58618;47.490;8.736;2023-10-31T05:21:28;4.80;;;1.20;;
70953;SDS011;58618;47.490;8.736;2023-10-31T05:24:15;2.40;;;1.20;;
70953;SDS011;58618;47.490;8.736;2023-10-31T05:27:04;1.98;;;1.20;;
70953;SDS011;58618;47.490;8.736;2023-10-31T05:29:53;4.55;;;1.35;;
70953;SDS011;58618;47.490;8.736;2023-10-31T05:32:40;1.98;;;0.95;;
70953;SDS011;58618;47.490;8.736;2023-10-31T05:35:27;4.73;;;1.17;;
70953;SDS011;58618;47.490;8.736;2023-10-31T05:38:15;3.35;;;1.23;;
70953;SDS011;58618;47.490;8.736;2023-10-31T05:41:03;2.30;;;0.93;;
70953;SDS011;58618;47.490;8.736;2023-10-31T05:43:51;3.67;;;1.20;;
70953;SDS011;58618;47.490;8.736;2023-10-31T05:46:39;4.13;;;1.25;;
70953;SDS011;58618;47.490;8.736;2023-10-31T05:49:26;1.83;;;1.10;;
70953;SDS011;58618;47.490;8.736;2023-10-31T05:52:13;3.80;;;1.20;;
70953;SDS011;58618;47.490;8.736;2023-10-31T05:55:01;3.17;;;1.10;;
70953;SDS011;58618;47.490;8.736;2023-10-31T05:57:48;6.53;;;1.10;;
70953;SDS011;58618;47.490;8.736;2023-10-31T06:00:38;3.60;;;0.88;;
70953;SDS011;58618;47.490;8.736;2023-10-31T06:03:25;4.27;;;1.27;;
70953;SDS011;58618;47.490;8.736;2023-10-31T06:06:13;3.78;;;1.40;;
70953;SDS011;58618;47.490;8.736;2023-10-31T06:09:00;4.55;;;1.40;;
70953;SDS011;58618;47.490;8.736;2023-10-31T06:11:48;2.70;;;1.00;;
70953;SDS011;58618;47.490;8.736;2023-10-31T06:14:35;3.88;;;1.30;;
70953;SDS011;58618;47.490;8.736;2023-10-31T06:17:25;2.90;;;1.00;;
70953;SDS011;58618;47.490;8.736;2023-10-31T06:20:12;2.38;;;1.20;;
70953;SDS011;58618;47.490;8.736;2023-10-31T06:23:00;1.58;;;1.10;;
70953;SDS011;58618;47.490;8.736;2023-10-31T06:25:49;3.45;;;1.58;;
70953;SDS011;58618;47.490;8.736;2023-10-31T06:28:36;3.03;;;1.38;;
70953;SDS011;58618;47.490;8.736;2023-10-31T06:31:25;3.07;;;1.10;;
70953;SDS011;58618;47.490;8.736;2023-10-31T06:34:14;3.03;;;1.30;;
70953;SDS011;58618;47.490;8.736;2023-10-31T06:37:02;2.95;;;1.27;;
70953;SDS011;58618;47.490;8.736;2023-10-31T06:39:49;1.92;;;1.00;;
70953;SDS011;58618;47.490;8.736;2023-10-31T06:42:37;1.85;;;1.10;;
70953;SDS011;58618;47.490;8.736;2023-10-31T06:45:24;4.30;;;1.23;;
70953;SDS011;58618;47.490;8.736;2023-10-31T06:48:11;1.77;;;1.30;;
70953;SDS011;58618;47.490;8.736;2023-10-31T06:51:00;4.88;;;1.10;;
70953;SDS011;58618;47.490;8.736;2023-10-31T06:53:47;3.47;;;1.10;;
70953;SDS011;58618;47.490;8.736;2023-10-31T06:56:35;3.83;;;1.13;;
70953;SDS011;58618;47.490;8.736;2023-10-31T06:59:22;4.33;;;1.00;;
70953;SDS011;58618;47.490;8.736;2023-10-31T07:02:09;4.25;;;1.20;;
70953;SDS011;58618;47.490;8.736;2023-10-31T07:04:57;2.85;;;1.00;;
70953;SDS011;58618;47.490;8.736;2023-10-31T07:07:46;2.60;;;1.10;;
70953;SDS011;58618;47.490;8.736;2023-10-31T07:10:33;2.22;;;1.00;;
70953;SDS011;58618;47.490;8.736;2023-10-31T07:13:21;2.90;;;0.93;;
70953;SDS011;58618;47.490;8.736;2023-10-31T07:16:08;3.95;;;1.50;;
70953;SDS011;58618;47.490;8.736;2023-10-31T07:18:55;1.70;;;1.00;;
70953;SDS011;58618;47.490;8.736;2023-10-31T07:21:43;3.38;;;1.10;;
70953;SDS011;58618;47.490;8.736;2023-10-31T07:24:32;4.32;;;1.10;;
70953;SDS011;58618;47.490;8.736;2023-10-31T07:27:19;2.37;;;1.07;;
70953;SDS011;58618;47.490;8.736;2023-10-31T07:30:07;3.88;;;1.15;;
70953;SDS011;58618;47.490;8.736;2023-10-31T07:32:55;2.30;;;1.10;;
70953;SDS011;58618;47.490;8.736;2023-10-31T07:35:45;4.78;;;1.15;;
70953;SDS011;58618;47.490;8.736;2023-10-31T07:38:34;2.53;;;1.10;;
70953;SDS011;58618;47.490;8.736;2023-10-31T07:41:23;1.73;;;1.00;;
70953;SDS011;58618;47.490;8.736;2023-10-31T07:44:11;6.60;;;1.70;;
70953;SDS011;58618;47.490;8.736;2023-10-31T07:46:59;2.25;;;1.15;;
70953;SDS011;58618;47.490;8.736;2023-10-31T07:49:46;4.53;;;1.15;;
70953;SDS011;58618;47.490;8.736;2023-10-31T07:52:34;3.28;;;1.45;;
70953;SDS011;58618;47.490;8.736;2023-10-31T07:55:21;4.60;;;1.87;;
70953;SDS011;58618;47.490;8.736;2023-10-31T07:58:10;2.55;;;0.98;;
70953;SDS011;58618;47.490;8.736;2023-10-31T08:00:58;1.88;;;1.25;;
70953;SDS011;58618;47.490;8.736;2023-10-31T08:03:45;3.40;;;1.40;;
70953;SDS011;58618;47.490;8.736;2023-10-31T08:06:33;3.25;;;1.20;;
70953;SDS011;58618;47.490;8.736;2023-10-31T08:09:21;2.80;;;1.30;;
70953;SDS011;58618;47.490;8.736;2023-10-31T08:12:08;2.58;;;1.00;;
70953;SDS011;58618;47.490;8.736;2023-10-31T08:14:57;3.13;;;1.05;;
70953;SDS011;58618;47.490;8.736;2023-10-31T08:17:45;2.70;;;1.10;;
70953;SDS011;58618;47.490;8.736;2023-10-31T08:20:33;2.25;;;1.25;;
70953;SDS011;58618;47.490;8.736;2023-10-31T08:23:21;3.03;;;1.20;;
70953;SDS011;58618;47.490;8.736;2023-10-31T08:26:08;3.17;;;0.90;;
70953;SDS011;58618;47.490;8.736;2023-10-31T08:28:56;1.30;;;1.10;;
70953;SDS011;58618;47.490;8.736;2023-10-31T08:31:45;2.78;;;1.10;;
70953;SDS011;58618;47.490;8.736;2023-10-31T08:34:32;3.10;;;1.05;;
70953;SDS011;58618;47.490;8.736;2023-10-31T08:37:20;2.43;;;1.00;;
70953;SDS011;58618;47.490;8.736;2023-10-31T08:40:07;5.00;;;1.20;;
70953;SDS011;58618;47.490;8.736;2023-10-31T08:42:55;4.97;;;1.30;;
70953;SDS011;58618;47.490;8.736;2023-10-31T08:45:43;4.93;;;1.10;;
70953;SDS011;58618;47.490;8.736;2023-10-31T08:48:31;2.03;;;1.27;;
70953;SDS011;58618;47.490;8.736;2023-10-31T08:51:19;1.47;;;0.93;;
70953;SDS011;58618;47.490;8.736;2023-10-31T08:54:06;2.70;;;1.00;;
70953;SDS011;58618;47.490;8.736;2023-10-31T08:56:54;9.00;;;1.30;;
70953;SDS011;58618;47.490;8.736;2023-10-31T08:59:42;4.55;;;1.20;;
70953;SDS011;58618;47.490;8.736;2023-10-31T09:02:29;2.63;;;0.98;;
70953;SDS011;58618;47.490;8.736;2023-10-31T09:05:18;3.73;;;1.00;;
70953;SDS011;58618;47.490;8.736;2023-10-31T09:08:05;4.10;;;1.05;;
70953;SDS011;58618;47.490;8.736;2023-10-31T09:10:53;4.60;;;1.67;;
70953;SDS011;58618;47.490;8.736;2023-10-31T09:13:40;1.80;;;1.00;;
70953;SDS011;58618;47.490;8.736;2023-10-31T09:16:28;4.70;;;1.20;;
70953;SDS011;58618;47.490;8.736;2023-10-31T09:19:15;3.93;;;1.10;;
70953;SDS011;58618;47.490;8.736;2023-10-31T09:22:04;2.45;;;0.93;;
70953;SDS011;58618;47.490;8.736;2023-10-31T09:24:51;3.97;;;0.88;;
70953;SDS011;58618;47.490;8.736;2023-10-31T09:27:40;3.70;;;0.98;;
70953;SDS011;58618;47.490;8.736;2023-10-31T09:30:27;2.58;;;1.00;;
70953;SDS011;58618;47.490;8.736;2023-10-31T09:33:15;1.90;;;0.90;;
70953;SDS011;58618;47.490;8.736;2023-10-31T09:36:02;1.60;;;0.90;;
70953;SDS011;58618;47.490;8.736;2023-10-31T09:38:52;3.10;;;0.90;;
70953;SDS011;58618;47.490;8.736;2023-10-31T09:41:39;2.78;;;1.10;;
70953;SDS011;58618;47.490;8.736;2023-10-31T09:44:27;2.55;;;1.05;;
70953;SDS011;58618;47.490;8.736;2023-10-31T09:47:14;2.57;;;1.10;;
70953;SDS011;58618;47.490;8.736;2023-10-31T09:50:02;1.27;;;1.00;;
70953;SDS011;58618;47.490;8.736;2023-10-31T09:52:50;2.72;;;1.00;;
70953;SDS011;58618;47.490;8.736;2023-10-31T09:55:40;2.67;;;1.20;;
70953;SDS011;58618;47.490;8.736;2023-10-31T09:58:28;2.63;;;1.10;;
70953;SDS011;58618;47.490;8.736;2023-10-31T10:01:15;3.30;;;1.03;;
70953;SDS011;58618;47.490;8.736;2023-10-31T10:04:03;4.07;;;1.10;;
70953;SDS011;58618;47.490;8.736;2023-10-31T10:06:52;1.98;;;0.95;;
70953;SDS011;58618;47.490;8.736;2023-10-31T10:09:45;2.38;;;0.90;;
70953;SDS011;58618;47.490;8.736;2023-10-31T10:12:34;3.58;;;1.10;;
70953;SDS011;58618;47.490;8.736;2023-10-31T10:15:22;2.33;;;1.10;;
70953;SDS011;58618;47.490;8.736;2023-10-31T10:18:09;4.88;;;0.93;;
70953;SDS011;58618;47.490;8.736;2023-10-31T10:20:57;3.38;;;1.00;;
70953;SDS011;58618;47.490;8.736;2023-10-31T10:23:46;1.35;;;0.80;;
70953;SDS011;58618;47.490;8.736;2023-10-31T10:26:35;1.42;;;1.20;;
70953;SDS011;58618;47.490;8.736;2023-10-31T10:29:23;1.43;;;0.90;;
70953;SDS011;58618;47.490;8.736;2023-10-31T10:32:12;2.35;;;1.00;;
70953;SDS011;58618;47.490;8.736;2023-10-31T10:35:00;2.03;;;0.90;;
70953;SDS011;58618;47.490;8.736;2023-10-31T10:37:47;2.38;;;1.00;;
70953;SDS011;58618;47.490;8.736;2023-10-31T10:40:38;1.45;;;0.85;;
70953;SDS011;58618;47.490;8.736;2023-10-31T10:43:27;3.77;;;1.20;;
70953;SDS011;58618;47.490;8.736;2023-10-31T10:46:20;1.73;;;0.90;;
70953;SDS011;58618;47.490;8.736;2023-10-31T10:49:10;3.10;;;0.90;;
70953;SDS011;58618;47.490;8.736;2023-10-31T10:52:01;1.52;;;0.98;;
70953;SDS011;58618;47.490;8.736;2023-10-31T10:55:07;1.45;;;0.88;;
70953;SDS011;58618;47.490;8.736;2023-10-31T10:58:00;3.20;;;1.30;;
70953;SDS011;58618;47.490;8.736;2023-10-31T11:00:55;3.70;;;1.00;;
70953;SDS011;58618;47.490;8.736;2023-10-31T11:03:46;2.38;;;0.90;;
70953;SDS011;58618;47.490;8.736;2023-10-31T11:06:34;1.45;;;0.98;;
70953;SDS011;58618;47.490;8.736;2023-10-31T11:09:23;2.45;;;1.15;;
70953;SDS011;58618;47.490;8.736;2023-10-31T11:12:11;2.80;;;1.03;;
70953;SDS011;58618;47.490;8.736;2023-10-31T11:15:01;2.90;;;0.98;;
70953;SDS011;58618;47.490;8.736;2023-10-31T11:17:50;3.03;;;0.90;;
70953;SDS011;58618;47.490;8.736;2023-10-31T11:20:40;2.20;;;1.00;;
70953;SDS011;58618;47.490;8.736;2023-10-31T11:23:28;1.75;;;0.93;;
70953;SDS011;58618;47.490;8.736;2023-10-31T11:26:15;2.67;;;0.83;;
70953;SDS011;58618;47.490;8.736;2023-10-31T11:29:04;1.65;;;0.85;;
70953;SDS011;58618;47.490;8.736;2023-10-31T11:31:52;2.13;;;0.90;;
70953;SDS011;58618;47.490;8.736;2023-10-31T11:34:41;2.25;;;1.00;;
70953;SDS011;58618;47.490;8.736;2023-10-31T11:37:34;1.60;;;1.05;;
70953;SDS011;58618;47.490;8.736;2023-10-31T11:40:22;2.07;;;1.37;;
70953;SDS011;58618;47.490;8.736;2023-10-31T11:43:09;2.10;;;0.93;;
70953;SDS011;58618;47.490;8.736;2023-10-31T11:45:57;2.78;;;1.00;;
70953;SDS011;58618;47.490;8.736;2023-10-31T11:48:47;2.13;;;1.50;;
70953;SDS011;58618;47.490;8.736;2023-10-31T11:51:37;2.95;;;1.20;;
70953;SDS011;58618;47.490;8.736;2023-10-31T11:54:25;4.03;;;0.80;;
70953;SDS011;58618;47.490;8.736;2023-10-31T11:57:25;2.40;;;0.93;;
70953;SDS011;58618;47.490;8.736;2023-10-31T12:00:19;2.55;;;1.40;;
70953;SDS011;58618;47.490;8.736;2023-10-31T12:03:08;2.35;;;1.40;;
70953;SDS011;58618;47.490;8.736;2023-10-31T12:05:56;2.55;;;1.15;;
70953;SDS011;58618;47.490;8.736;2023-10-31T12:08:45;2.90;;;0.93;;
70953;SDS011;58618;47.490;8.736;2023-10-31T12:11:37;1.60;;;1.05;;
70953;SDS011;58618;47.490;8.736;2023-10-31T12:14:31;3.63;;;1.10;;
70953;SDS011;58618;47.490;8.736;2023-10-31T12:17:18;2.65;;;1.00;;
70953;SDS011;58618;47.490;8.736;2023-10-31T12:20:06;3.47;;;0.98;;
70953;SDS011;58618;47.490;8.736;2023-10-31T12:23:01;4.10;;;0.90;;
70953;SDS011;58618;47.490;8.736;2023-10-31T12:25:50;4.70;;;1.00;;
70953;SDS011;58618;47.490;8.736;2023-10-31T12:28:40;1.75;;;0.93;;
70953;SDS011;58618;47.490;8.736;2023-10-31T12:31:27;1.75;;;1.05;;
70953;SDS011;58618;47.490;8.736;2023-10-31T12:34:16;3.47;;;1.65;;
70953;SDS011;58618;47.490;8.736;2023-10-31T12:37:05;1.83;;;1.10;;
70953;SDS011;58618;47.490;8.736;2023-10-31T12:39:52;1.88;;;0.95;;
70953;SDS011;58618;47.490;8.736;2023-10-31T12:42:40;1.60;;;1.00;;
70953;SDS011;58618;47.490;8.736;2023-10-31T12:45:30;2.05;;;0.90;;
70953;SDS011;58618;47.490;8.736;2023-10-31T12:48:23;2.00;;;0.98;;
70953;SDS011;58618;47.490;8.736;2023-10-31T12:51:11;4.77;;;1.23;;
70953;SDS011;58618;47.490;8.736;2023-10-31T12:53:59;2.40;;;0.90;;
70953;SDS011;58618;47.490;8.736;2023-10-31T12:56:47;1.92;;;0.80;;
70953;SDS011;58618;47.490;8.736;2023-10-31T12:59:34;2.60;;;1.02;;
70953;SDS011;58618;47.490;8.736;2023-10-31T13:02:25;3.33;;;0.90;;
70953;SDS011;58618;47.490;8.736;2023-10-31T13:05:13;0.80;;;0.80;;
70953;SDS011;58618;47.490;8.736;2023-10-31T13:08:01;3.05;;;1.10;;
70953;SDS011;58618;47.490;8.736;2023-10-31T13:10:50;1.85;;;0.90;;
70953;SDS011;58618;47.490;8.736;2023-10-31T13:13:38;3.33;;;0.88;;
70953;SDS011;58618;47.490;8.736;2023-10-31T13:16:26;3.10;;;0.90;;
70953;SDS011;58618;47.490;8.736;2023-10-31T13:19:15;1.50;;;0.90;;
70953;SDS011;58618;47.490;8.736;2023-10-31T13:22:02;4.97;;;1.02;;
70953;SDS011;58618;47.490;8.736;2023-10-31T13:24:50;3.65;;;0.85;;
70953;SDS011;58618;47.490;8.736;2023-10-31T13:27:38;0.90;;;0.77;;
70953;SDS011;58618;47.490;8.736;2023-10-31T13:30:27;1.20;;;0.82;;
70953;SDS011;58618;47.490;8.736;2023-10-31T13:33:14;3.13;;;0.90;;
70953;SDS011;58618;47.490;8.736;2023-10-31T13:36:04;1.27;;;0.70;;
70953;SDS011;58618;47.490;8.736;2023-10-31T13:38:52;1.10;;;0.73;;
70953;SDS011;58618;47.490;8.736;2023-10-31T13:41:39;2.53;;;0.70;;
70953;SDS011;58618;47.490;8.736;2023-10-31T13:44:26;0.90;;;0.75;;
70953;SDS011;58618;47.490;8.736;2023-10-31T13:47:14;2.40;;;0.50;;
70953;SDS011;58618;47.490;8.736;2023-10-31T13:50:01;1.20;;;0.70;;
70953;SDS011;58618;47.490;8.736;2023-10-31T13:52:50;1.55;;;0.80;;
70953;SDS011;58618;47.490;8.736;2023-10-31T13:55:38;1.48;;;0.75;;
70953;SDS011;58618;47.490;8.736;2023-10-31T13:58:26;1.52;;;0.50;;
70953;SDS011;58618;47.490;8.736;2023-10-31T14:01:13;0.80;;;0.63;;
70953;SDS011;58618;47.490;8.736;2023-10-31T14:04:00;1.50;;;0.90;;
70953;SDS011;58618;47.490;8.736;2023-10-31T14:06:48;1.23;;;0.70;;
70953;SDS011;58618;47.490;8.736;2023-10-31T14:09:37;1.77;;;0.70;;
70953;SDS011;58618;47.490;8.736;2023-10-31T14:12:24;1.77;;;1.13;;
70953;SDS011;58618;47.490;8.736;2023-10-31T14:15:18;5.87;;;1.07;;
70953;SDS011;58618;47.490;8.736;2023-10-31T14:18:10;2.33;;;0.82;;
70953;SDS011;58618;47.490;8.736;2023-10-31T14:21:20;0.88;;;0.70;;
70953;SDS011;58618;47.490;8.736;2023-10-31T14:24:08;0.80;;;0.60;;
70953;SDS011;58618;47.490;8.736;2023-10-31T14:27:05;1.83;;;0.68;;
70953;SDS011;58618;47.490;8.736;2023-10-31T14:29:53;0.60;;;0.60;;
70953;SDS011;58618;47.490;8.736;2023-10-31T14:32:44;1.50;;;0.70;;
70953;SDS011;58618;47.490;8.736;2023-10-31T14:35:33;0.60;;;0.50;;
70953;SDS011;58618;47.490;8.736;2023-10-31T14:38:21;0.80;;;0.60;;
70953;SDS011;58618;47.490;8.736;2023-10-31T14:41:08;0.98;;;0.60;;
70953;SDS011;58618;47.490;8.736;2023-10-31T14:43:57;0.70;;;0.60;;
70953;SDS011;58618;47.490;8.736;2023-10-31T14:46:44;0.60;;;0.60;;
70953;SDS011;58618;47.490;8.736;2023-10-31T14:49:32;0.60;;;0.50;;
70953;SDS011;58618;47.490;8.736;2023-10-31T14:52:19;0.80;;;0.65;;
70953;SDS011;58618;47.490;8.736;2023-10-31T14:55:07;1.50;;;0.60;;
70953;SDS011;58618;47.490;8.736;2023-10-31T14:57:55;1.13;;;0.67;;
70953;SDS011;58618;47.490;8.736;2023-10-31T15:00:44;0.60;;;0.60;;
70953;SDS011;58618;47.490;8.736;2023-10-31T15:03:31;1.25;;;0.60;;
70953;SDS011;58618;47.490;8.736;2023-10-31T15:06:20;0.82;;;0.52;;
70953;SDS011;58618;47.490;8.736;2023-10-31T15:09:08;0.50;;;0.50;;
70953;SDS011;58618;47.490;8.736;2023-10-31T15:11:55;0.70;;;0.60;;
70953;SDS011;58618;47.490;8.736;2023-10-31T15:14:42;0.50;;;0.50;;
70953;SDS011;58618;47.490;8.736;2023-10-31T15:17:31;0.60;;;0.60;;
70953;SDS011;58618;47.490;8.736;2023-10-31T15:20:22;1.83;;;0.60;;
70953;SDS011;58618;47.490;8.736;2023-10-31T15:23:09;0.80;;;0.60;;
70953;SDS011;58618;47.490;8.736;2023-10-31T15:25:59;0.60;;;0.60;;
70953;SDS011;58618;47.490;8.736;2023-10-31T15:28:58;0.60;;;0.50;;
70953;SDS011;58618;47.490;8.736;2023-10-31T15:31:46;0.60;;;0.57;;
70953;SDS011;58618;47.490;8.736;2023-10-31T15:34:41;0.60;;;0.60;;
70953;SDS011;58618;47.490;8.736;2023-10-31T15:37:28;0.80;;;0.70;;
70953;SDS011;58618;47.490;8.736;2023-10-31T15:40:16;1.00;;;0.60;;
70953;SDS011;58618;47.490;8.736;2023-10-31T15:43:03;1.75;;;0.75;;
70953;SDS011;58618;47.490;8.736;2023-10-31T15:45:50;0.93;;;0.70;;
70953;SDS011;58618;47.490;8.736;2023-10-31T15:48:38;0.60;;;0.50;;
70953;SDS011;58618;47.490;8.736;2023-10-31T15:51:28;0.57;;;0.50;;
70953;SDS011;58618;47.490;8.736;2023-10-31T15:54:18;0.80;;;0.70;;
70953;SDS011;58618;47.490;8.736;2023-10-31T15:57:06;0.60;;;0.55;;
70953;SDS011;58618;47.490;8.736;2023-10-31T15:59:53;1.13;;;0.60;;
70953;SDS011;58618;47.490;8.736;2023-10-31T16:02:41;0.70;;;0.60;;
70953;SDS011;58618;47.490;8.736;2023-10-31T16:05:28;2.40;;;0.50;;
70953;SDS011;58618;47.490;8.736;2023-10-31T16:08:17;0.90;;;0.53;;
70953;SDS011;58618;47.490;8.736;2023-10-31T16:11:04;0.60;;;0.50;;
70953;SDS011;58618;47.490;8.736;2023-10-31T16:13:52;1.25;;;0.70;;
70953;SDS011;58618;47.490;8.736;2023-10-31T16:16:39;0.93;;;0.60;;
70953;SDS011;58618;47.490;8.736;2023-10-31T16:19:27;0.50;;;0.50;;
70953;SDS011;58618;47.490;8.736;2023-10-31T16:22:14;0.90;;;0.53;;
70953;SDS011;58618;47.490;8.736;2023-10-31T16:25:03;0.90;;;0.60;;
70953;SDS011;58618;47.490;8.736;2023-10-31T16:27:51;1.20;;;0.68;;
70953;SDS011;58618;47.490;8.736;2023-10-31T16:30:39;0.90;;;0.70;;
70953;SDS011;58618;47.490;8.736;2023-10-31T16:33:27;1.85;;;0.77;;
70953;SDS011;58618;47.490;8.736;2023-10-31T16:36:14;0.90;;;0.70;;
70953;SDS011;58618;47.490;8.736;2023-10-31T16:39:03;0.70;;;0.60;;
70953;SDS011;58618;47.490;8.736;2023-10-31T16:41:53;1.15;;;0.85;;
70953;SDS011;58618;47.490;8.736;2023-10-31T16:44:41;1.38;;;0.80;;
70953;SDS011;58618;47.490;8.736;2023-10-31T16:47:31;1.15;;;0.80;;
70953;SDS011;58618;47.490;8.736;2023-10-31T16:50:18;0.80;;;0.70;;
70953;SDS011;58618;47.490;8.736;2023-10-31T16:53:05;2.10;;;0.93;;
70953;SDS011;58618;47.490;8.736;2023-10-31T16:55:53;1.30;;;0.80;;